sensor_id;sensor_type;location;lat;lon;timestamp;temperature;humidity
66670;DHT22;53568;52.164;4.472;2023-07-28T00:01:18;20.66;81.67
66670;DHT22;53568;52.164;4.472;2023-07-28T00:03:43;20.66;81.47
66670;DHT22;53568;52.164;4.472;2023-07-28T00:06:09;20.65;81.59
66670;DHT22;53568;52.164;4.472;2023-07-28T00:08:34;20.63;81.64
66670;DHT22;53568;52.164;4.472;2023-07-28T00:11:00;20.57;81.73
66670;DHT22;53568;52.164;4.472;2023-07-28T00:13:25;20.65;81.75
66670;DHT22;53568;52.164;4.472;2023-07-28T00:15:51;20.66;81.62
66670;DHT22;53568;52.164;4.472;2023-07-28T00:18:16;20.63;81.56
66670;DHT22;53568;52.164;4.472;2023-07-28T00:20:43;20.63;81.75
66670;DHT22;53568;52.164;4.472;2023-07-28T00:23:09;20.65;81.78
66670;DHT22;53568;52.164;4.472;2023-07-28T00:25:35;20.71;81.80
66670;DHT22;53568;52.164;4.472;2023-07-28T00:28:00;20.71;81.59
66670;DHT22;53568;52.164;4.472;2023-07-28T00:30:26;20.72;81.50
66670;DHT22;53568;52.164;4.472;2023-07-28T00:32:51;20.69;81.56
66670;DHT22;53568;52.164;4.472;2023-07-28T00:35:17;20.66;81.68
66670;DHT22;53568;52.164;4.472;2023-07-28T00:37:42;20.66;81.71
66670;DHT22;53568;52.164;4.472;2023-07-28T00:40:08;20.71;81.91
66670;DHT22;53568;52.164;4.472;2023-07-28T00:42:34;20.65;81.99
66670;DHT22;53568;52.164;4.472;2023-07-28T00:44:59;20.69;81.95
66670;DHT22;53568;52.164;4.472;2023-07-28T00:47:25;20.63;82.09
66670;DHT22;53568;52.164;4.472;2023-07-28T00:49:50;20.69;82.00
66670;DHT22;53568;52.164;4.472;2023-07-28T00:52:16;20.75;81.87
66670;DHT22;53568;52.164;4.472;2023-07-28T00:54:41;20.71;82.06
66670;DHT22;53568;52.164;4.472;2023-07-28T00:57:07;20.69;82.17
66670;DHT22;53568;52.164;4.472;2023-07-28T00:59:32;20.69;82.27
66670;DHT22;53568;52.164;4.472;2023-07-28T01:01:58;20.75;82.26
66670;DHT22;53568;52.164;4.472;2023-07-28T01:04:24;20.77;82.02
66670;DHT22;53568;52.164;4.472;2023-07-28T01:07:01;20.79;81.88
66670;DHT22;53568;52.164;4.472;2023-07-28T01:09:36;20.79;81.97
66670;DHT22;53568;52.164;4.472;2023-07-28T01:12:07;20.85;81.89
66670;DHT22;53568;52.164;4.472;2023-07-28T01:14:33;20.83;81.83
66670;DHT22;53568;52.164;4.472;2023-07-28T01:17:02;20.86;81.69
66670;DHT22;53568;52.164;4.472;2023-07-28T01:19:27;20.83;81.69
66670;DHT22;53568;52.164;4.472;2023-07-28T01:27:37;20.85;81.94
66670;DHT22;53568;52.164;4.472;2023-07-28T01:30:03;20.86;81.87
66670;DHT22;53568;52.164;4.472;2023-07-28T01:32:29;20.87;81.74
66670;DHT22;53568;52.164;4.472;2023-07-28T01:34:54;20.86;81.76
66670;DHT22;53568;52.164;4.472;2023-07-28T01:37:20;20.89;81.75
66670;DHT22;53568;52.164;4.472;2023-07-28T01:39:46;20.90;81.60
66670;DHT22;53568;52.164;4.472;2023-07-28T01:42:11;20.90;81.63
66670;DHT22;53568;52.164;4.472;2023-07-28T01:44:37;20.86;81.68
66670;DHT22;53568;52.164;4.472;2023-07-28T01:47:02;20.89;81.64
66670;DHT22;53568;52.164;4.472;2023-07-28T01:49:28;20.89;81.84
66670;DHT22;53568;52.164;4.472;2023-07-28T01:51:53;20.92;81.83
66670;DHT22;53568;52.164;4.472;2023-07-28T01:54:21;20.96;81.77
66670;DHT22;53568;52.164;4.472;2023-07-28T01:56:47;21.00;81.71
66670;DHT22;53568;52.164;4.472;2023-07-28T01:59:12;21.04;81.58
66670;DHT22;53568;52.164;4.472;2023-07-28T02:01:40;21.06;81.32
66670;DHT22;53568;52.164;4.472;2023-07-28T02:04:05;21.03;81.27
66670;DHT22;53568;52.164;4.472;2023-07-28T02:06:31;21.03;81.41
66670;DHT22;53568;52.164;4.472;2023-07-28T02:08:57;21.06;81.39
66670;DHT22;53568;52.164;4.472;2023-07-28T02:11:22;21.08;81.41
66670;DHT22;53568;52.164;4.472;2023-07-28T02:13:48;21.07;81.38
66670;DHT22;53568;52.164;4.472;2023-07-28T02:16:13;21.10;81.22
66670;DHT22;53568;52.164;4.472;2023-07-28T02:18:39;21.13;81.23
66670;DHT22;53568;52.164;4.472;2023-07-28T02:21:04;21.02;81.28
66670;DHT22;53568;52.164;4.472;2023-07-28T02:23:30;21.00;81.41
66670;DHT22;53568;52.164;4.472;2023-07-28T02:25:55;21.06;81.31
66670;DHT22;53568;52.164;4.472;2023-07-28T02:28:20;21.04;81.43
66670;DHT22;53568;52.164;4.472;2023-07-28T02:30:46;21.03;81.44
66670;DHT22;53568;52.164;4.472;2023-07-28T02:33:11;21.03;81.39
66670;DHT22;53568;52.164;4.472;2023-07-28T02:35:37;21.06;81.42
66670;DHT22;53568;52.164;4.472;2023-07-28T02:38:02;21.07;81.31
66670;DHT22;53568;52.164;4.472;2023-07-28T02:40:28;21.07;81.46
66670;DHT22;53568;52.164;4.472;2023-07-28T02:42:53;21.07;81.44
66670;DHT22;53568;52.164;4.472;2023-07-28T02:45:19;21.06;81.56
66670;DHT22;53568;52.164;4.472;2023-07-28T02:47:45;21.07;81.57
66670;DHT22;53568;52.164;4.472;2023-07-28T02:50:10;21.07;81.59
66670;DHT22;53568;52.164;4.472;2023-07-28T02:52:36;21.07;81.66
66670;DHT22;53568;52.164;4.472;2023-07-28T02:55:01;21.08;81.53
66670;DHT22;53568;52.164;4.472;2023-07-28T02:57:27;21.07;81.77
66670;DHT22;53568;52.164;4.472;2023-07-28T02:59:52;21.04;81.65
66670;DHT22;53568;52.164;4.472;2023-07-28T03:02:18;21.04;81.78
66670;DHT22;53568;52.164;4.472;2023-07-28T03:04:43;21.04;81.86
66670;DHT22;53568;52.164;4.472;2023-07-28T03:07:09;21.08;81.79
66670;DHT22;53568;52.164;4.472;2023-07-28T03:09:34;21.07;81.84
66670;DHT22;53568;52.164;4.472;2023-07-28T03:12:00;21.06;81.88
66670;DHT22;53568;52.164;4.472;2023-07-28T03:14:25;21.03;81.90
66670;DHT22;53568;52.164;4.472;2023-07-28T03:16:52;21.02;82.07
66670;DHT22;53568;52.164;4.472;2023-07-28T03:19:17;21.02;82.09
66670;DHT22;53568;52.164;4.472;2023-07-28T03:21:43;21.00;82.14
66670;DHT22;53568;52.164;4.472;2023-07-28T03:24:08;21.03;82.15
66670;DHT22;53568;52.164;4.472;2023-07-28T03:26:34;21.04;82.04
66670;DHT22;53568;52.164;4.472;2023-07-28T03:28:59;21.04;81.99
66670;DHT22;53568;52.164;4.472;2023-07-28T03:31:25;21.00;82.06
66670;DHT22;53568;52.164;4.472;2023-07-28T03:33:50;20.96;82.19
66670;DHT22;53568;52.164;4.472;2023-07-28T03:36:16;20.97;82.26
66670;DHT22;53568;52.164;4.472;2023-07-28T03:38:41;20.97;82.24
66670;DHT22;53568;52.164;4.472;2023-07-28T03:41:07;20.96;82.37
66670;DHT22;53568;52.164;4.472;2023-07-28T03:43:33;20.96;82.45
66670;DHT22;53568;52.164;4.472;2023-07-28T03:45:59;20.99;82.30
66670;DHT22;53568;52.164;4.472;2023-07-28T03:48:25;21.03;82.27
66670;DHT22;53568;52.164;4.472;2023-07-28T03:50:50;21.04;82.12
66670;DHT22;53568;52.164;4.472;2023-07-28T03:53:15;21.04;82.12
66670;DHT22;53568;52.164;4.472;2023-07-28T03:55:41;21.06;81.95
66670;DHT22;53568;52.164;4.472;2023-07-28T03:58:06;21.07;81.87
66670;DHT22;53568;52.164;4.472;2023-07-28T04:00:32;21.02;82.07
66670;DHT22;53568;52.164;4.472;2023-07-28T04:02:58;21.02;82.02
66670;DHT22;53568;52.164;4.472;2023-07-28T04:05:24;21.00;81.98
66670;DHT22;53568;52.164;4.472;2023-07-28T04:07:49;20.95;82.15
66670;DHT22;53568;52.164;4.472;2023-07-28T04:10:15;20.97;82.21
66670;DHT22;53568;52.164;4.472;2023-07-28T04:12:40;20.96;82.20
66670;DHT22;53568;52.164;4.472;2023-07-28T04:15:06;21.02;82.20
66670;DHT22;53568;52.164;4.472;2023-07-28T04:17:32;21.00;82.13
66670;DHT22;53568;52.164;4.472;2023-07-28T04:19:57;20.99;82.03
66670;DHT22;53568;52.164;4.472;2023-07-28T04:22:23;20.97;82.19
66670;DHT22;53568;52.164;4.472;2023-07-28T04:24:49;20.93;82.24
66670;DHT22;53568;52.164;4.472;2023-07-28T04:27:15;20.97;82.26
66670;DHT22;53568;52.164;4.472;2023-07-28T04:29:41;20.97;82.28
66670;DHT22;53568;52.164;4.472;2023-07-28T04:32:07;20.96;82.24
66670;DHT22;53568;52.164;4.472;2023-07-28T04:34:33;20.97;82.16
66670;DHT22;53568;52.164;4.472;2023-07-28T04:36:59;20.93;82.27
66670;DHT22;53568;52.164;4.472;2023-07-28T04:39:24;20.87;82.36
66670;DHT22;53568;52.164;4.472;2023-07-28T04:41:50;20.86;82.50
66670;DHT22;53568;52.164;4.472;2023-07-28T04:44:17;20.85;82.63
66670;DHT22;53568;52.164;4.472;2023-07-28T04:46:42;20.83;82.69
66670;DHT22;53568;52.164;4.472;2023-07-28T04:49:08;20.86;82.64
66670;DHT22;53568;52.164;4.472;2023-07-28T04:51:33;20.85;82.67
66670;DHT22;53568;52.164;4.472;2023-07-28T04:53:59;20.87;82.66
66670;DHT22;53568;52.164;4.472;2023-07-28T04:56:24;20.89;82.67
66670;DHT22;53568;52.164;4.472;2023-07-28T04:58:50;20.93;82.58
66670;DHT22;53568;52.164;4.472;2023-07-28T05:01:15;20.89;82.57
66670;DHT22;53568;52.164;4.472;2023-07-28T05:03:41;20.95;82.54
66670;DHT22;53568;52.164;4.472;2023-07-28T05:06:06;20.93;82.50
66670;DHT22;53568;52.164;4.472;2023-07-28T05:08:32;20.97;82.46
66670;DHT22;53568;52.164;4.472;2023-07-28T05:10:57;20.95;82.51
66670;DHT22;53568;52.164;4.472;2023-07-28T05:13:23;20.95;82.60
66670;DHT22;53568;52.164;4.472;2023-07-28T05:15:50;20.95;82.56
66670;DHT22;53568;52.164;4.472;2023-07-28T05:18:16;21.00;82.41
66670;DHT22;53568;52.164;4.472;2023-07-28T05:20:41;20.97;82.55
66670;DHT22;53568;52.164;4.472;2023-07-28T05:23:06;21.02;82.48
66670;DHT22;53568;52.164;4.472;2023-07-28T05:25:32;20.99;82.50
66670;DHT22;53568;52.164;4.472;2023-07-28T05:27:57;20.99;82.54
66670;DHT22;53568;52.164;4.472;2023-07-28T05:30:23;20.92;82.66
66670;DHT22;53568;52.164;4.472;2023-07-28T05:32:48;20.89;82.78
66670;DHT22;53568;52.164;4.472;2023-07-28T05:35:15;20.85;82.87
66670;DHT22;53568;52.164;4.472;2023-07-28T05:37:41;20.86;82.94
66670;DHT22;53568;52.164;4.472;2023-07-28T05:40:07;20.89;82.90
66670;DHT22;53568;52.164;4.472;2023-07-28T05:42:33;20.96;82.56
66670;DHT22;53568;52.164;4.472;2023-07-28T05:44:59;20.96;82.63
66670;DHT22;53568;52.164;4.472;2023-07-28T05:47:24;20.95;82.73
66670;DHT22;53568;52.164;4.472;2023-07-28T05:49:51;20.96;82.65
66670;DHT22;53568;52.164;4.472;2023-07-28T05:52:19;20.95;82.64
66670;DHT22;53568;52.164;4.472;2023-07-28T05:54:45;20.93;82.74
66670;DHT22;53568;52.164;4.472;2023-07-28T05:57:10;20.90;82.76
66670;DHT22;53568;52.164;4.472;2023-07-28T05:59:36;20.96;82.75
66670;DHT22;53568;52.164;4.472;2023-07-28T06:02:02;20.99;82.40
66670;DHT22;53568;52.164;4.472;2023-07-28T06:04:27;20.93;82.58
66670;DHT22;53568;52.164;4.472;2023-07-28T06:06:53;20.97;82.56
66670;DHT22;53568;52.164;4.472;2023-07-28T06:09:18;20.95;82.49
66670;DHT22;53568;52.164;4.472;2023-07-28T06:11:44;20.90;82.38
66670;DHT22;53568;52.164;4.472;2023-07-28T06:14:09;20.92;82.49
66670;DHT22;53568;52.164;4.472;2023-07-28T06:16:35;20.93;82.40
66670;DHT22;53568;52.164;4.472;2023-07-28T06:19:01;20.97;82.47
66670;DHT22;53568;52.164;4.472;2023-07-28T06:21:26;21.03;82.42
66670;DHT22;53568;52.164;4.472;2023-07-28T06:23:52;21.00;82.33
66670;DHT22;53568;52.164;4.472;2023-07-28T06:26:17;21.02;82.40
66670;DHT22;53568;52.164;4.472;2023-07-28T06:28:44;21.06;82.32
66670;DHT22;53568;52.164;4.472;2023-07-28T06:31:10;21.03;82.14
66670;DHT22;53568;52.164;4.472;2023-07-28T06:33:35;20.99;82.28
66670;DHT22;53568;52.164;4.472;2023-07-28T06:36:02;21.00;82.31
66670;DHT22;53568;52.164;4.472;2023-07-28T06:38:28;21.03;82.40
66670;DHT22;53568;52.164;4.472;2023-07-28T06:40:54;21.07;82.25
66670;DHT22;53568;52.164;4.472;2023-07-28T06:43:20;21.07;82.29
66670;DHT22;53568;52.164;4.472;2023-07-28T06:45:46;21.16;82.35
66670;DHT22;53568;52.164;4.472;2023-07-28T06:48:11;21.13;82.24
66670;DHT22;53568;52.164;4.472;2023-07-28T06:50:37;21.11;82.07
66670;DHT22;53568;52.164;4.472;2023-07-28T06:53:02;21.13;82.12
66670;DHT22;53568;52.164;4.472;2023-07-28T06:55:28;21.08;82.29
66670;DHT22;53568;52.164;4.472;2023-07-28T06:57:53;21.13;82.26
66670;DHT22;53568;52.164;4.472;2023-07-28T07:00:19;21.17;82.27
66670;DHT22;53568;52.164;4.472;2023-07-28T07:02:44;21.22;82.15
66670;DHT22;53568;52.164;4.472;2023-07-28T07:05:10;21.20;81.94
66670;DHT22;53568;52.164;4.472;2023-07-28T07:07:37;21.17;82.12
66670;DHT22;53568;52.164;4.472;2023-07-28T07:10:02;21.26;81.77
66670;DHT22;53568;52.164;4.472;2023-07-28T07:12:28;21.24;81.66
66670;DHT22;53568;52.164;4.472;2023-07-28T07:14:53;21.27;81.74
66670;DHT22;53568;52.164;4.472;2023-07-28T07:17:19;21.34;81.72
66670;DHT22;53568;52.164;4.472;2023-07-28T07:19:45;21.41;81.55
66670;DHT22;53568;52.164;4.472;2023-07-28T07:22:10;21.50;81.39
66670;DHT22;53568;52.164;4.472;2023-07-28T07:24:36;21.49;80.90
66670;DHT22;53568;52.164;4.472;2023-07-28T07:27:01;21.51;80.97
66670;DHT22;53568;52.164;4.472;2023-07-28T07:29:27;21.54;80.94
66670;DHT22;53568;52.164;4.472;2023-07-28T07:31:53;21.50;80.70
66670;DHT22;53568;52.164;4.472;2023-07-28T07:34:22;21.53;80.84
66670;DHT22;53568;52.164;4.472;2023-07-28T07:36:49;21.57;80.76
66670;DHT22;53568;52.164;4.472;2023-07-28T07:39:15;21.68;80.66
66670;DHT22;53568;52.164;4.472;2023-07-28T07:41:40;21.75;80.44
66670;DHT22;53568;52.164;4.472;2023-07-28T07:44:06;21.84;80.09
66670;DHT22;53568;52.164;4.472;2023-07-28T07:46:32;21.75;79.69
66670;DHT22;53568;52.164;4.472;2023-07-28T07:48:57;21.71;79.44
66670;DHT22;53568;52.164;4.472;2023-07-28T07:51:23;21.74;79.46
66670;DHT22;53568;52.164;4.472;2023-07-28T07:53:49;21.80;79.51
66670;DHT22;53568;52.164;4.472;2023-07-28T07:56:14;21.92;78.86
66670;DHT22;53568;52.164;4.472;2023-07-28T07:58:40;21.97;78.68
66670;DHT22;53568;52.164;4.472;2023-07-28T08:01:06;21.98;78.43
66670;DHT22;53568;52.164;4.472;2023-07-28T08:03:31;21.98;77.89
66670;DHT22;53568;52.164;4.472;2023-07-28T08:05:57;22.00;77.99
66670;DHT22;53568;52.164;4.472;2023-07-28T08:08:23;21.97;77.80
66670;DHT22;53568;52.164;4.472;2023-07-28T08:10:49;22.05;77.46
66670;DHT22;53568;52.164;4.472;2023-07-28T08:13:16;22.02;77.23
66670;DHT22;53568;52.164;4.472;2023-07-28T08:15:45;22.01;77.72
66670;DHT22;53568;52.164;4.472;2023-07-28T08:18:12;22.12;77.69
66670;DHT22;53568;52.164;4.472;2023-07-28T08:20:37;22.18;77.43
66670;DHT22;53568;52.164;4.472;2023-07-28T08:23:03;22.36;77.33
66670;DHT22;53568;52.164;4.472;2023-07-28T08:25:29;22.45;77.10
66670;DHT22;53568;52.164;4.472;2023-07-28T08:27:54;22.51;76.70
66670;DHT22;53568;52.164;4.472;2023-07-28T08:30:20;22.58;75.97
66670;DHT22;53568;52.164;4.472;2023-07-28T08:32:46;22.66;75.89
66670;DHT22;53568;52.164;4.472;2023-07-28T08:35:12;22.72;75.74
66670;DHT22;53568;52.164;4.472;2023-07-28T08:37:37;22.79;75.67
66670;DHT22;53568;52.164;4.472;2023-07-28T08:40:03;22.68;74.76
66670;DHT22;53568;52.164;4.472;2023-07-28T08:42:35;22.66;74.66
66670;DHT22;53568;52.164;4.472;2023-07-28T08:45:02;22.70;74.25
66670;DHT22;53568;52.164;4.472;2023-07-28T08:47:30;22.69;73.84
66670;DHT22;53568;52.164;4.472;2023-07-28T08:49:56;22.72;73.81
66670;DHT22;53568;52.164;4.472;2023-07-28T08:52:22;22.73;73.78
66670;DHT22;53568;52.164;4.472;2023-07-28T08:54:49;22.66;73.81
66670;DHT22;53568;52.164;4.472;2023-07-28T08:57:15;22.70;73.89
66670;DHT22;53568;52.164;4.472;2023-07-28T08:59:40;22.60;74.19
66670;DHT22;53568;52.164;4.472;2023-07-28T09:02:15;22.56;74.27
66670;DHT22;53568;52.164;4.472;2023-07-28T09:04:47;22.35;74.14
66670;DHT22;53568;52.164;4.472;2023-07-28T09:07:13;22.29;74.46
66670;DHT22;53568;52.164;4.472;2023-07-28T09:09:39;22.24;74.80
66670;DHT22;53568;52.164;4.472;2023-07-28T09:12:09;22.18;75.17
66670;DHT22;53568;52.164;4.472;2023-07-28T09:14:36;22.24;75.52
66670;DHT22;53568;52.164;4.472;2023-07-28T09:17:12;22.28;75.62
66670;DHT22;53568;52.164;4.472;2023-07-28T09:19:51;22.29;75.52
66670;DHT22;53568;52.164;4.472;2023-07-28T09:22:17;22.12;75.41
66670;DHT22;53568;52.164;4.472;2023-07-28T09:24:44;22.12;75.77
66670;DHT22;53568;52.164;4.472;2023-07-28T09:27:25;22.16;75.82
66670;DHT22;53568;52.164;4.472;2023-07-28T09:29:53;22.02;75.99
66670;DHT22;53568;52.164;4.472;2023-07-28T09:32:28;21.95;75.81
66670;DHT22;53568;52.164;4.472;2023-07-28T09:35:07;21.97;76.11
66670;DHT22;53568;52.164;4.472;2023-07-28T09:37:37;21.85;76.13
66670;DHT22;53568;52.164;4.472;2023-07-28T09:40:07;21.85;76.35
66670;DHT22;53568;52.164;4.472;2023-07-28T09:42:35;21.92;76.40
66670;DHT22;53568;52.164;4.472;2023-07-28T09:45:01;21.95;75.67
66670;DHT22;53568;52.164;4.472;2023-07-28T09:47:30;21.98;75.68
66670;DHT22;53568;52.164;4.472;2023-07-28T09:49:58;22.02;75.54
66670;DHT22;53568;52.164;4.472;2023-07-28T09:52:33;21.95;75.61
66670;DHT22;53568;52.164;4.472;2023-07-28T09:55:06;22.04;75.40
66670;DHT22;53568;52.164;4.472;2023-07-28T09:57:38;22.00;75.35
66670;DHT22;53568;52.164;4.472;2023-07-28T10:00:07;22.00;75.23
66670;DHT22;53568;52.164;4.472;2023-07-28T10:02:34;22.00;75.29
66670;DHT22;53568;52.164;4.472;2023-07-28T10:05:01;22.11;75.20
66670;DHT22;53568;52.164;4.472;2023-07-28T10:07:28;22.16;75.00
66670;DHT22;53568;52.164;4.472;2023-07-28T10:09:54;22.31;74.67
66670;DHT22;53568;52.164;4.472;2023-07-28T10:12:24;22.39;74.55
66670;DHT22;53568;52.164;4.472;2023-07-28T10:15:01;22.38;74.09
66670;DHT22;53568;52.164;4.472;2023-07-28T10:17:34;22.52;74.54
66670;DHT22;53568;52.164;4.472;2023-07-28T10:20:03;22.58;74.32
66670;DHT22;53568;52.164;4.472;2023-07-28T10:22:43;22.49;74.42
66670;DHT22;53568;52.164;4.472;2023-07-28T10:25:10;22.59;74.32
66670;DHT22;53568;52.164;4.472;2023-07-28T10:27:38;22.68;73.99
66670;DHT22;53568;52.164;4.472;2023-07-28T10:30:10;22.80;73.60
66670;DHT22;53568;52.164;4.472;2023-07-28T10:32:40;22.95;73.26
66670;DHT22;53568;52.164;4.472;2023-07-28T10:35:22;22.85;72.22
66670;DHT22;53568;52.164;4.472;2023-07-28T10:37:48;22.80;72.21
66670;DHT22;53568;52.164;4.472;2023-07-28T10:40:27;22.72;72.01
66670;DHT22;53568;52.164;4.472;2023-07-28T10:42:54;22.73;72.25
66670;DHT22;53568;52.164;4.472;2023-07-28T10:45:21;22.68;72.48
66670;DHT22;53568;52.164;4.472;2023-07-28T10:47:48;22.66;72.50
66670;DHT22;53568;52.164;4.472;2023-07-28T10:50:14;22.80;72.01
66670;DHT22;53568;52.164;4.472;2023-07-28T10:52:45;22.82;71.07
66670;DHT22;53568;52.164;4.472;2023-07-28T10:55:22;22.88;71.29
66670;DHT22;53568;52.164;4.472;2023-07-28T10:57:49;22.90;71.59
66670;DHT22;53568;52.164;4.472;2023-07-28T11:00:17;22.98;71.52
66670;DHT22;53568;52.164;4.472;2023-07-28T11:02:52;22.98;71.12
66670;DHT22;53568;52.164;4.472;2023-07-28T11:05:24;23.12;70.98
66670;DHT22;53568;52.164;4.472;2023-07-28T11:08:01;23.13;71.10
66670;DHT22;53568;52.164;4.472;2023-07-28T11:10:31;23.10;71.15
66670;DHT22;53568;52.164;4.472;2023-07-28T11:12:59;22.96;71.30
66670;DHT22;53568;52.164;4.472;2023-07-28T11:15:25;22.98;71.32
66670;DHT22;53568;52.164;4.472;2023-07-28T11:17:52;22.98;71.13
66670;DHT22;53568;52.164;4.472;2023-07-28T11:20:20;23.02;70.49
66670;DHT22;53568;52.164;4.472;2023-07-28T11:22:57;23.04;70.67
66670;DHT22;53568;52.164;4.472;2023-07-28T11:25:26;23.02;71.26
66670;DHT22;53568;52.164;4.472;2023-07-28T11:27:52;23.07;71.11
66670;DHT22;53568;52.164;4.472;2023-07-28T11:30:19;23.14;70.52
66670;DHT22;53568;52.164;4.472;2023-07-28T11:32:50;23.07;70.44
66670;DHT22;53568;52.164;4.472;2023-07-28T11:35:18;23.04;70.56
66670;DHT22;53568;52.164;4.472;2023-07-28T11:37:46;22.99;70.46
66670;DHT22;53568;52.164;4.472;2023-07-28T11:40:16;22.92;70.61
66670;DHT22;53568;52.164;4.472;2023-07-28T11:42:48;22.90;70.27
66670;DHT22;53568;52.164;4.472;2023-07-28T11:45:16;22.95;70.62
66670;DHT22;53568;52.164;4.472;2023-07-28T11:48:04;22.99;71.13
66670;DHT22;53568;52.164;4.472;2023-07-28T11:50:39;23.17;70.93
66670;DHT22;53568;52.164;4.472;2023-07-28T11:53:06;23.23;70.72
66670;DHT22;53568;52.164;4.472;2023-07-28T11:55:34;23.09;69.36
66670;DHT22;53568;52.164;4.472;2023-07-28T11:58:01;23.13;69.73
66670;DHT22;53568;52.164;4.472;2023-07-28T12:00:35;23.13;69.25
66670;DHT22;53568;52.164;4.472;2023-07-28T12:03:09;23.20;69.21
66670;DHT22;53568;52.164;4.472;2023-07-28T12:05:36;23.24;68.66
66670;DHT22;53568;52.164;4.472;2023-07-28T12:08:02;23.27;68.58
66670;DHT22;53568;52.164;4.472;2023-07-28T12:10:33;23.23;68.62
66670;DHT22;53568;52.164;4.472;2023-07-28T12:13:08;23.30;68.93
66670;DHT22;53568;52.164;4.472;2023-07-28T12:15:43;23.26;69.21
66670;DHT22;53568;52.164;4.472;2023-07-28T12:20:42;23.06;69.48
66670;DHT22;53568;52.164;4.472;2023-07-28T12:23:13;23.12;69.63
66670;DHT22;53568;52.164;4.472;2023-07-28T12:25:39;23.09;69.39
66670;DHT22;53568;52.164;4.472;2023-07-28T12:28:05;23.19;69.54
66670;DHT22;53568;52.164;4.472;2023-07-28T12:30:32;23.28;69.56
66670;DHT22;53568;52.164;4.472;2023-07-28T12:32:58;23.33;69.66
66670;DHT22;53568;52.164;4.472;2023-07-28T12:35:24;23.44;69.61
66670;DHT22;53568;52.164;4.472;2023-07-28T12:37:52;23.49;69.22
66670;DHT22;53568;52.164;4.472;2023-07-28T12:40:18;23.46;69.09
66670;DHT22;53568;52.164;4.472;2023-07-28T12:42:47;23.42;69.35
66670;DHT22;53568;52.164;4.472;2023-07-28T12:45:14;23.27;69.65
66670;DHT22;53568;52.164;4.472;2023-07-28T12:47:42;23.17;69.87
66670;DHT22;53568;52.164;4.472;2023-07-28T12:50:09;23.09;69.69
66670;DHT22;53568;52.164;4.472;2023-07-28T12:52:35;23.06;70.16
66670;DHT22;53568;52.164;4.472;2023-07-28T12:55:01;23.07;70.44
66670;DHT22;53568;52.164;4.472;2023-07-28T12:57:27;23.04;70.86
66670;DHT22;53568;52.164;4.472;2023-07-28T12:59:53;23.16;70.24
66670;DHT22;53568;52.164;4.472;2023-07-28T13:02:18;23.17;70.39
66670;DHT22;53568;52.164;4.472;2023-07-28T13:04:44;23.36;69.79
66670;DHT22;53568;52.164;4.472;2023-07-28T13:07:09;23.42;69.17
66670;DHT22;53568;52.164;4.472;2023-07-28T13:09:35;23.49;67.48
66670;DHT22;53568;52.164;4.472;2023-07-28T13:12:00;23.47;67.25
66670;DHT22;53568;52.164;4.472;2023-07-28T13:14:26;23.37;67.15
66670;DHT22;53568;52.164;4.472;2023-07-28T13:16:51;23.47;67.36
66670;DHT22;53568;52.164;4.472;2023-07-28T13:19:17;23.43;67.20
66670;DHT22;53568;52.164;4.472;2023-07-28T13:21:42;23.49;67.08
66670;DHT22;53568;52.164;4.472;2023-07-28T13:24:08;23.47;67.42
66670;DHT22;53568;52.164;4.472;2023-07-28T13:26:34;23.53;67.39
66670;DHT22;53568;52.164;4.472;2023-07-28T13:28:59;23.57;67.78
66670;DHT22;53568;52.164;4.472;2023-07-28T13:31:27;23.70;67.85
66670;DHT22;53568;52.164;4.472;2023-07-28T13:33:53;23.71;68.10
66670;DHT22;53568;52.164;4.472;2023-07-28T13:36:19;23.85;67.61
66670;DHT22;53568;52.164;4.472;2023-07-28T13:38:45;23.70;68.03
66670;DHT22;53568;52.164;4.472;2023-07-28T13:41:11;23.63;68.29
66670;DHT22;53568;52.164;4.472;2023-07-28T13:43:36;23.66;68.47
66670;DHT22;53568;52.164;4.472;2023-07-28T13:46:06;23.64;68.83
66670;DHT22;53568;52.164;4.472;2023-07-28T13:48:32;23.66;69.27
66670;DHT22;53568;52.164;4.472;2023-07-28T13:50:58;23.64;69.79
66670;DHT22;53568;52.164;4.472;2023-07-28T13:53:24;23.67;69.65
66670;DHT22;53568;52.164;4.472;2023-07-28T13:55:50;23.66;69.46
66670;DHT22;53568;52.164;4.472;2023-07-28T13:58:16;23.75;69.47
66670;DHT22;53568;52.164;4.472;2023-07-28T14:00:42;23.91;69.26
66670;DHT22;53568;52.164;4.472;2023-07-28T14:03:07;23.98;69.38
66670;DHT22;53568;52.164;4.472;2023-07-28T14:05:33;23.94;69.56
66670;DHT22;53568;52.164;4.472;2023-07-28T14:07:58;23.90;69.17
66670;DHT22;53568;52.164;4.472;2023-07-28T14:10:24;23.82;69.38
66670;DHT22;53568;52.164;4.472;2023-07-28T14:12:49;23.63;69.45
66670;DHT22;53568;52.164;4.472;2023-07-28T14:15:15;23.56;69.47
66670;DHT22;53568;52.164;4.472;2023-07-28T14:17:40;23.57;69.48
66670;DHT22;53568;52.164;4.472;2023-07-28T14:20:07;23.47;69.56
66670;DHT22;53568;52.164;4.472;2023-07-28T14:22:33;23.51;69.57
66670;DHT22;53568;52.164;4.472;2023-07-28T14:24:59;23.51;69.23
66670;DHT22;53568;52.164;4.472;2023-07-28T14:27:24;23.46;69.47
66670;DHT22;53568;52.164;4.472;2023-07-28T14:29:50;23.49;69.65
66670;DHT22;53568;52.164;4.472;2023-07-28T14:32:15;23.47;69.77
66670;DHT22;53568;52.164;4.472;2023-07-28T14:34:41;23.50;70.03
66670;DHT22;53568;52.164;4.472;2023-07-28T14:37:06;23.49;69.88
66670;DHT22;53568;52.164;4.472;2023-07-28T14:39:32;23.34;69.95
66670;DHT22;53568;52.164;4.472;2023-07-28T14:41:58;23.17;70.20
66670;DHT22;53568;52.164;4.472;2023-07-28T14:44:23;23.06;71.02
66670;DHT22;53568;52.164;4.472;2023-07-28T14:46:49;23.06;71.33
66670;DHT22;53568;52.164;4.472;2023-07-28T14:49:14;23.09;71.51
66670;DHT22;53568;52.164;4.472;2023-07-28T14:51:40;23.17;71.57
66670;DHT22;53568;52.164;4.472;2023-07-28T14:54:05;23.23;71.30
66670;DHT22;53568;52.164;4.472;2023-07-28T14:56:31;23.27;70.87
66670;DHT22;53568;52.164;4.472;2023-07-28T14:58:58;23.07;71.30
66670;DHT22;53568;52.164;4.472;2023-07-28T15:01:26;23.06;71.63
66670;DHT22;53568;52.164;4.472;2023-07-28T15:03:51;23.03;71.84
66670;DHT22;53568;52.164;4.472;2023-07-28T15:06:17;23.00;72.13
66670;DHT22;53568;52.164;4.472;2023-07-28T15:08:43;23.09;72.37
66670;DHT22;53568;52.164;4.472;2023-07-28T15:11:08;23.19;72.27
66670;DHT22;53568;52.164;4.472;2023-07-28T15:13:34;23.17;71.84
66670;DHT22;53568;52.164;4.472;2023-07-28T15:15:59;23.09;71.35
66670;DHT22;53568;52.164;4.472;2023-07-28T15:18:25;23.12;71.11
66670;DHT22;53568;52.164;4.472;2023-07-28T15:20:51;23.24;71.04
66670;DHT22;53568;52.164;4.472;2023-07-28T15:23:17;23.42;69.76
66670;DHT22;53568;52.164;4.472;2023-07-28T15:25:43;23.43;69.60
66670;DHT22;53568;52.164;4.472;2023-07-28T15:28:12;23.50;69.40
66670;DHT22;53568;52.164;4.472;2023-07-28T15:30:38;23.60;69.42
66670;DHT22;53568;52.164;4.472;2023-07-28T15:33:04;23.74;69.46
66670;DHT22;53568;52.164;4.472;2023-07-28T15:35:30;23.66;69.25